CDT,Max TemperatureF,Mean TemperatureF,Min TemperatureF,Max Dew PointF,MeanDew PointF,Min DewpointF,Max Humidity, Mean Humidity, Min Humidity, Max Sea Level PressureIn, Mean Sea Level PressureIn, Min Sea Level PressureIn, Max VisibilityMiles, Mean VisibilityMiles, Min VisibilityMiles, Max Wind SpeedMPH, Mean Wind SpeedMPH, Max Gust SpeedMPH,PrecipitationIn, CloudCover, Events, WindDirDegrees
2013-4-1,87,74,62,68,64,59,100,86,39,30.05,29.99,29.87,10,10,7,21,4,,0.00,5,,76
2013-4-2,79,68,57,68,65,57,100,90,62,30.03,29.94,29.79,10,8,0,40,9,55,0.52,6,Fog-Rain-Thunderstorm,122
2013-4-3,57,54,50,57,54,48,100,96,88,30.13,29.98,29.78,10,9,2,22,12,29,0.22,7,Rain-Thunderstorm,359
2013-4-4,67,57,47,47,44,43,93,74,43,30.21,30.15,30.09,10,10,10,18,10,21,0.00,4,,332
2013-4-5,72,56,41,51,45,41,99,72,42,30.28,30.18,30.07,10,10,10,8,5,,0.00,0,,85
2013-4-6,81,66,51,60,55,49,100,77,42,30.07,29.98,29.85,10,10,7,17,8,25,0.00,4,,184
2013-4-7,85,72,60,66,63,60,100,84,46,29.93,29.87,29.75,10,10,10,20,8,24,0.00,6,,159
2013-4-8,76,70,66,70,67,63,100,89,77,29.84,29.75,29.67,10,10,9,18,11,24,0.00,6,,149
2013-4-9,88,78,69,72,69,67,100,84,51,29.73,29.66,29.56,10,10,10,18,14,28,0.00,4,,144
2013-4-10,73,60,48,72,58,45,100,88,63,29.92,29.76,29.63,10,8,1,28,14,37,0.04,7,Rain,22
2013-4-11,68,57,46,43,40,33,83,63,36,29.98,29.90,29.80,10,10,7,16,10,26,0.00,2,Rain-Thunderstorm,30
2013-4-12,81,62,44,51,44,38,96,57,25,30.01,29.92,29.84,10,10,10,15,6,,0.00,0,,81
2013-4-13,79,62,48,61,53,46,100,73,40,29.96,29.88,29.75,10,10,10,16,7,20,0.00,2,,99
2013-4-14,88,71,55,69,62,55,100,89,40,29.82,29.73,29.61,10,9,0,14,5,20,0.00,4,Fog,192
2013-4-15,91,78,66,70,67,61,100,82,38,29.80,29.74,29.68,10,9,7,16,9,22,0.00,4,,163
2013-4-16,86,76,65,73,68,65,100,87,52,29.89,29.84,29.77,10,9,3,21,10,23,0.00,5,,128
2013-4-17,81,76,71,74,73,70,100,92,70,29.89,29.80,29.65,10,8,4,21,12,28,0.00,7,,143
2013-4-18,75,64,53,73,59,34,100,81,40,30.06,29.81,29.64,10,8,1,33,15,43,0.08,6,Rain,1
2013-4-19,71,58,46,34,28,21,60,34,17,30.29,30.22,30.12,10,10,10,23,12,31,0.00,0,,13
2013-4-20,74,56,37,48,34,28,91,49,18,30.23,30.13,29.99,10,10,10,16,6,24,0.00,0,,101
2013-4-21,81,65,50,60,53,48,94,72,39,30.14,30.08,29.98,10,10,10,14,7,23,0.00,5,,98
2013-4-22,84,70,57,63,60,57,100,84,41,30.12,30.04,29.86,10,9,1,16,7,22,0.00,5,Fog,153
2013-4-23,79,68,56,68,61,44,100,79,56,30.05,29.91,29.84,10,10,10,20,11,25,0.00,7,,147
2013-4-24,63,54,46,43,39,34,79,62,37,30.24,30.15,30.07,10,10,10,24,18,33,0.00,8,Rain,6
2013-4-25,69,62,57,50,44,40,66,51,39,30.32,30.24,30.19,10,10,10,16,9,18,0.00,8,,53
2013-4-26,79,68,59,74,65,50,100,90,63,30.20,30.10,30.02,10,7,0,15,5,18,0.00,7,Fog-Rain,150
2013-4-27,82,74,66,74,69,66,100,94,67,30.10,30.03,29.93,10,10,4,22,7,21,0.04,8,Rain-Thunderstorm,135
2013-4-28,82,70,59,68,64,59,100,85,53,30.05,29.97,29.86,10,10,10,15,7,20,0.00,3,,142
2013-4-29,86,74,64,70,66,61,100,91,43,29.94,29.87,29.75,10,8,1,22,7,34,0.24,5,Rain-Thunderstorm,161
2013-4-30,82,73,64,70,66,64,100,93,58,29.84,29.80,29.70,10,9,2,10,4,,0.00,5,,96